Time;durP1;ratioP1;P1;durP2;ratioP2;P2;SDS_P1;SDS_P2;PMS_P1;PMS_P2;Temp;Humidity;BMP_temperature;BMP_pressure;BME280_temperature;BME280_humidity;BME280_pressure;Samples;Min_cycle;Max_cycle;Signal;HPM_P1;HPM_P2
2021/11/14 00:00:43;;;;;;;;;;;20.60;41.50;;;;;;469848;254;1077;-46
2021/11/14 00:02:44;;;;;;;;;;;20.50;41.50;;;;;;469918;253;1198;-45
2021/11/14 00:04:46;;;;;;;;;;;20.60;41.60;;;;;;469849;254;2191;-45
2021/11/14 00:06:47;;;;;;;;;;;20.50;41.50;;;;;;469766;254;1247;-46
2021/11/14 00:08:49;;;;;;;;;;;20.60;41.60;;;;;;469907;253;1123;-45
2021/11/14 00:10:50;;;;;;;;;;;20.60;41.60;;;;;;469969;253;1191;-45
2021/11/14 00:12:51;;;;;;;;;;;20.60;41.50;;;;;;469824;254;1237;-45
2021/11/14 00:14:53;;;;;;;;;;;20.60;41.50;;;;;;469941;253;1113;-46
2021/11/14 00:16:54;;;;;;;;;;;20.60;41.60;;;;;;469973;253;1327;-45
2021/11/14 00:18:55;;;;;;;;;;;20.60;41.50;;;;;;470103;253;1002;-45
2021/11/14 00:20:57;;;;;;;;;;;20.60;41.60;;;;;;470039;253;1490;-45
2021/11/14 00:22:58;;;;;;;;;;;20.50;41.70;;;;;;469956;253;1670;-46
2021/11/14 00:25:00;;;;;;;;;;;20.50;41.70;;;;;;469956;253;2144;-45
2021/11/14 00:27:01;;;;;;;;;;;20.60;41.70;;;;;;469981;253;1432;-46
2021/11/14 00:29:03;;;;;;;;;;;20.50;41.70;;;;;;469919;254;1068;-45
2021/11/14 00:31:05;;;;;;;;;;;20.50;41.60;;;;;;469824;254;1345;-45
2021/11/14 00:33:05;;;;;;;;;;;20.50;41.60;;;;;;469873;253;2364;-45
2021/11/14 00:35:07;;;;;;;;;;;20.50;41.70;;;;;;469914;254;1101;-45
2021/11/14 00:37:08;;;;;;;;;;;20.50;41.60;;;;;;470101;253;1379;-46
2021/11/14 00:39:09;;;;;;;;;;;20.60;41.70;;;;;;469872;254;1049;-46
2021/11/14 00:41:11;;;;;;;;;;;20.60;41.70;;;;;;469928;253;1531;-45
2021/11/14 00:43:12;;;;;;;;;;;20.50;41.60;;;;;;469917;253;979;-46
2021/11/14 00:45:13;;;;;;;;;;;20.50;41.70;;;;;;470054;253;2177;-45
2021/11/14 00:47:14;;;;;;;;;;;20.50;41.70;;;;;;470018;253;1058;-46
2021/11/14 00:49:16;;;;;;;;;;;20.50;41.70;;;;;;469908;253;1077;-45
2021/11/14 00:51:18;;;;;;;;;;;20.60;41.70;;;;;;469983;253;1386;-45
2021/11/14 00:53:18;;;;;;;;;;;20.60;41.70;;;;;;469981;253;1081;-45
2021/11/14 00:55:20;;;;;;;;;;;20.50;41.60;;;;;;469907;254;1300;-45
2021/11/14 00:57:21;;;;;;;;;;;20.50;41.60;;;;;;469868;254;1232;-46
2021/11/14 00:59:22;;;;;;;;;;;20.50;41.70;;;;;;469906;254;1110;-46
2021/11/14 01:01:24;;;;;;;;;;;20.50;41.70;;;;;;469988;253;1151;-45
2021/11/14 01:03:25;;;;;;;;;;;20.60;41.80;;;;;;469836;254;1150;-45
2021/11/14 01:05:27;;;;;;;;;;;20.60;41.70;;;;;;470302;253;2198;-45
2021/11/14 01:07:28;;;;;;;;;;;20.50;41.60;;;;;;469897;254;1053;-45
2021/11/14 01:09:29;;;;;;;;;;;20.50;41.80;;;;;;469931;254;1097;-45
2021/11/14 01:11:31;;;;;;;;;;;20.50;41.70;;;;;;469948;253;1275;-45
2021/11/14 01:13:32;;;;;;;;;;;20.50;41.70;;;;;;469929;253;1058;-45
2021/11/14 01:15:33;;;;;;;;;;;20.50;41.70;;;;;;470087;253;1131;-46
2021/11/14 01:17:38;;;;;;;;;;;20.60;41.80;;;;;;469870;254;1311;-45
2021/11/14 01:19:37;;;;;;;;;;;20.50;41.70;;;;;;470025;253;1986;-45
2021/11/14 01:21:38;;;;;;;;;;;20.60;41.70;;;;;;469828;249;1308;-45
2021/11/14 01:23:40;;;;;;;;;;;20.50;41.70;;;;;;470328;253;1056;-46
2021/11/14 01:25:41;;;;;;;;;;;20.60;41.70;;;;;;469880;254;2136;-45
2021/11/14 01:27:42;;;;;;;;;;;20.50;41.70;;;;;;469884;254;1494;-46
2021/11/14 01:29:43;;;;;;;;;;;20.50;41.70;;;;;;470227;253;1017;-45
2021/11/14 01:31:45;;;;;;;;;;;20.50;41.70;;;;;;469741;254;1588;-46
2021/11/14 01:33:46;;;;;;;;;;;20.60;41.80;;;;;;469989;253;1056;-46
2021/11/14 01:35:47;;;;;;;;;;;20.50;41.70;;;;;;470287;253;1323;-46
2021/11/14 01:37:49;;;;;;;;;;;20.60;41.70;;;;;;469899;253;1196;-45
2021/11/14 01:39:50;;;;;;;;;;;20.60;41.70;;;;;;469914;254;1080;-46
2021/11/14 01:41:51;;;;;;;;;;;20.60;41.80;;;;;;469960;253;1283;-46
2021/11/14 01:43:53;;;;;;;;;;;20.50;41.70;;;;;;470046;253;1059;-45
2021/11/14 01:45:54;;;;;;;;;;;20.50;41.70;;;;;;469830;254;2207;-45
2021/11/14 01:47:55;;;;;;;;;;;20.50;41.80;;;;;;469913;254;1288;-45
2021/11/14 01:49:57;;;;;;;;;;;20.50;41.80;;;;;;470387;253;1039;-45
2021/11/14 01:51:58;;;;;;;;;;;20.50;41.70;;;;;;469896;253;1197;-45
2021/11/14 01:53:59;;;;;;;;;;;20.50;41.70;;;;;;469876;254;1076;-45
2021/11/14 01:56:01;;;;;;;;;;;20.60;41.80;;;;;;469974;253;1390;-46
2021/11/14 01:58:02;;;;;;;;;;;20.50;41.80;;;;;;469878;254;1147;-46
2021/11/14 02:00:03;;;;;;;;;;;20.50;41.80;;;;;;469934;253;1077;-45
2021/11/14 02:02:05;;;;;;;;;;;20.50;41.80;;;;;;469916;253;1462;-45
2021/11/14 02:04:06;;;;;;;;;;;20.50;41.80;;;;;;469894;253;1071;-45
2021/11/14 02:06:10;;;;;;;;;;;20.50;41.80;;;;;;470053;253;2132;-45
2021/11/14 02:08:12;;;;;;;;;;;20.60;41.80;;;;;;469875;254;1273;-45
2021/11/14 02:10:13;;;;;;;;;;;20.50;41.80;;;;;;470348;253;1012;-45
2021/11/14 02:12:15;;;;;;;;;;;20.50;41.80;;;;;;469979;253;1251;-46
2021/11/14 02:14:15;;;;;;;;;;;20.50;41.90;;;;;;470103;253;2167;-45
2021/11/14 02:16:17;;;;;;;;;;;20.50;41.80;;;;;;470212;250;1183;-45
2021/11/14 02:18:18;;;;;;;;;;;20.60;41.90;;;;;;470158;253;1106;-45
2021/11/14 02:20:19;;;;;;;;;;;20.50;41.80;;;;;;469942;254;1063;-45
2021/11/14 02:22:21;;;;;;;;;;;20.50;41.80;;;;;;470013;253;1325;-45
2021/11/14 02:24:22;;;;;;;;;;;20.50;41.80;;;;;;470125;253;2132;-45
2021/11/14 02:26:24;;;;;;;;;;;20.50;41.80;;;;;;469836;254;1360;-45
2021/11/14 02:28:25;;;;;;;;;;;20.50;42.00;;;;;;470178;249;1337;-45
2021/11/14 02:30:27;;;;;;;;;;;20.50;41.90;;;;;;469969;253;1033;-46
2021/11/14 02:32:28;;;;;;;;;;;20.50;41.90;;;;;;469853;254;1297;-45
2021/11/14 02:34:29;;;;;;;;;;;20.50;41.90;;;;;;469915;254;1076;-45
2021/11/14 02:36:30;;;;;;;;;;;20.50;41.90;;;;;;470180;253;1118;-45
2021/11/14 02:38:32;;;;;;;;;;;20.50;41.90;;;;;;470317;253;1220;-46
2021/11/14 02:40:33;;;;;;;;;;;20.50;41.90;;;;;;470100;253;1056;-46
2021/11/14 02:42:34;;;;;;;;;;;20.40;41.90;;;;;;469997;253;1381;-46
2021/11/14 02:44:36;;;;;;;;;;;20.50;42.00;;;;;;470210;253;2216;-46
2021/11/14 02:46:37;;;;;;;;;;;20.40;41.90;;;;;;469912;254;1089;-46
2021/11/14 02:48:38;;;;;;;;;;;20.50;41.90;;;;;;469910;254;1081;-45
2021/11/14 02:50:40;;;;;;;;;;;20.50;41.90;;;;;;470044;253;1157;-45
2021/11/14 02:52:41;;;;;;;;;;;20.50;41.90;;;;;;469914;254;1070;-45
2021/11/14 02:54:42;;;;;;;;;;;20.50;41.90;;;;;;470089;253;1084;-45
2021/11/14 02:56:44;;;;;;;;;;;20.50;42.00;;;;;;469839;254;1600;-46
2021/11/14 02:58:45;;;;;;;;;;;20.50;41.90;;;;;;470238;253;1074;-45
2021/11/14 03:00:46;;;;;;;;;;;20.50;41.90;;;;;;470147;253;1142;-45
2021/11/14 03:02:48;;;;;;;;;;;20.50;41.90;;;;;;470076;253;1243;-46
2021/11/14 03:04:49;;;;;;;;;;;20.50;41.90;;;;;;470281;253;2137;-45
2021/11/14 03:06:50;;;;;;;;;;;20.50;41.80;;;;;;469859;253;1346;-45
2021/11/14 03:08:52;;;;;;;;;;;20.50;42.00;;;;;;469837;254;1071;-45
2021/11/14 03:10:53;;;;;;;;;;;20.50;41.90;;;;;;470276;253;1034;-46
2021/11/14 03:12:54;;;;;;;;;;;20.50;42.00;;;;;;470008;253;1220;-46
2021/11/14 03:14:56;;;;;;;;;;;20.50;42.00;;;;;;470152;253;1017;-45
2021/11/14 03:16:57;;;;;;;;;;;20.50;42.00;;;;;;469833;253;1240;-45
2021/11/14 03:18:58;;;;;;;;;;;20.50;42.00;;;;;;469860;254;1074;-45
2021/11/14 03:21:02;;;;;;;;;;;20.50;42.00;;;;;;470131;253;1425;-46
2021/11/14 03:23:01;;;;;;;;;;;20.50;41.90;;;;;;469894;253;2415;-46
2021/11/14 03:25:02;;;;;;;;;;;20.50;41.90;;;;;;469977;253;2206;-45
2021/11/14 03:27:03;;;;;;;;;;;20.50;42.00;;;;;;469963;253;1187;-46
2021/11/14 03:29:05;;;;;;;;;;;20.50;42.00;;;;;;469925;254;1173;-45
2021/11/14 03:31:06;;;;;;;;;;;20.50;42.00;;;;;;470065;253;1239;-45
2021/11/14 03:33:07;;;;;;;;;;;20.50;42.00;;;;;;469881;254;1231;-46
2021/11/14 03:35:09;;;;;;;;;;;20.50;42.00;;;;;;470310;253;1070;-46
2021/11/14 03:37:10;;;;;;;;;;;20.50;42.00;;;;;;469819;253;1173;-45
2021/11/14 03:39:11;;;;;;;;;;;20.50;42.00;;;;;;470147;253;1077;-45
2021/11/14 03:41:13;;;;;;;;;;;20.40;42.00;;;;;;470143;253;1069;-45
2021/11/14 03:43:14;;;;;;;;;;;20.50;42.10;;;;;;469873;254;1581;-46
2021/11/14 03:45:15;;;;;;;;;;;20.50;42.00;;;;;;469826;254;2194;-45
2021/11/14 03:47:17;;;;;;;;;;;20.50;42.00;;;;;;469754;254;1258;-45
2021/11/14 03:49:18;;;;;;;;;;;20.50;42.00;;;;;;469894;254;1206;-46
2021/11/14 03:51:19;;;;;;;;;;;20.50;42.00;;;;;;469752;254;1304;-45
2021/11/14 03:53:21;;;;;;;;;;;20.50;42.00;;;;;;469986;253;1131;-46
2021/11/14 03:55:22;;;;;;;;;;;20.50;42.00;;;;;;470329;253;1157;-45
2021/11/14 03:57:23;;;;;;;;;;;20.50;42.00;;;;;;469818;253;1182;-46
2021/11/14 03:59:25;;;;;;;;;;;20.50;41.90;;;;;;469901;254;1093;-45
2021/11/14 04:01:26;;;;;;;;;;;20.50;41.90;;;;;;470084;253;1378;-45
2021/11/14 04:03:27;;;;;;;;;;;20.50;42.00;;;;;;470020;253;1424;-45
2021/11/14 04:05:29;;;;;;;;;;;20.50;42.00;;;;;;469896;254;2188;-45
2021/11/14 04:07:30;;;;;;;;;;;20.50;42.00;;;;;;469766;254;1538;-45
2021/11/14 04:09:32;;;;;;;;;;;20.50;42.00;;;;;;469919;253;1053;-46
2021/11/14 04:11:33;;;;;;;;;;;20.50;42.10;;;;;;470016;253;1273;-45
2021/11/14 04:13:35;;;;;;;;;;;20.50;42.10;;;;;;469941;253;1291;-45
2021/11/14 04:15:36;;;;;;;;;;;20.50;42.00;;;;;;469972;253;1164;-45
2021/11/14 04:17:38;;;;;;;;;;;20.50;42.10;;;;;;470174;253;1159;-45
2021/11/14 04:19:39;;;;;;;;;;;20.50;42.00;;;;;;469851;254;1228;-46
2021/11/14 04:21:40;;;;;;;;;;;20.50;42.10;;;;;;469996;253;1198;-45
2021/11/14 04:23:42;;;;;;;;;;;20.50;42.00;;;;;;469970;253;1252;-46
2021/11/14 04:25:43;;;;;;;;;;;20.50;42.00;;;;;;469884;254;2139;-45
2021/11/14 04:27:44;;;;;;;;;;;20.50;42.10;;;;;;469924;253;1252;-45
2021/11/14 04:29:46;;;;;;;;;;;20.50;42.10;;;;;;470112;253;1083;-45
2021/11/14 04:31:47;;;;;;;;;;;20.50;42.00;;;;;;470021;253;1162;-46
2021/11/14 04:33:48;;;;;;;;;;;20.50;42.00;;;;;;470302;253;1167;-45
2021/11/14 04:35:49;;;;;;;;;;;20.50;42.00;;;;;;470017;253;1184;-45
2021/11/14 04:37:51;;;;;;;;;;;20.50;42.10;;;;;;469864;253;1219;-45
2021/11/14 04:39:52;;;;;;;;;;;20.40;42.10;;;;;;469905;253;1293;-45
2021/11/14 04:41:54;;;;;;;;;;;20.40;42.10;;;;;;469799;254;1269;-45
2021/11/14 04:43:55;;;;;;;;;;;20.50;42.10;;;;;;470035;253;1235;-45
2021/11/14 04:45:56;;;;;;;;;;;20.50;42.10;;;;;;469888;253;2223;-45
2021/11/14 04:47:58;;;;;;;;;;;20.50;42.10;;;;;;469821;254;1175;-46
2021/11/14 04:49:59;;;;;;;;;;;20.40;42.10;;;;;;470113;253;1076;-46
2021/11/14 04:52:00;;;;;;;;;;;20.50;42.10;;;;;;469848;254;1259;-45
2021/11/14 04:54:02;;;;;;;;;;;20.40;42.10;;;;;;469938;253;1045;-45
2021/11/14 04:56:03;;;;;;;;;;;20.50;42.10;;;;;;469907;254;1769;-45
2021/11/14 04:58:04;;;;;;;;;;;20.50;42.10;;;;;;470044;253;1187;-46
2021/11/14 05:00:05;;;;;;;;;;;20.50;42.10;;;;;;470112;253;1078;-45
2021/11/14 05:02:07;;;;;;;;;;;20.50;42.10;;;;;;470119;253;1180;-46
2021/11/14 05:04:08;;;;;;;;;;;20.50;42.10;;;;;;469964;254;1053;-45
2021/11/14 05:06:10;;;;;;;;;;;20.40;42.10;;;;;;470103;253;2128;-46
2021/11/14 05:08:11;;;;;;;;;;;20.50;42.10;;;;;;469934;253;1948;-46
2021/11/14 05:10:12;;;;;;;;;;;20.50;42.10;;;;;;469980;253;1091;-45
2021/11/14 05:12:13;;;;;;;;;;;20.50;42.10;;;;;;469984;253;1244;-45
2021/11/14 05:14:15;;;;;;;;;;;20.50;42.10;;;;;;469921;253;1273;-45
2021/11/14 05:16:16;;;;;;;;;;;20.40;42.10;;;;;;469954;253;1090;-45
2021/11/14 05:18:17;;;;;;;;;;;20.50;42.10;;;;;;470063;253;1241;-45
2021/11/14 05:20:19;;;;;;;;;;;20.50;42.10;;;;;;470235;253;1046;-45
2021/11/14 05:22:20;;;;;;;;;;;20.50;42.00;;;;;;469957;253;1066;-45
2021/11/14 05:24:21;;;;;;;;;;;20.50;42.10;;;;;;469960;254;1236;-45
2021/11/14 05:26:23;;;;;;;;;;;20.50;42.10;;;;;;469840;253;2139;-45
2021/11/14 05:28:24;;;;;;;;;;;20.50;42.10;;;;;;470185;253;1134;-45
2021/11/14 05:30:25;;;;;;;;;;;20.50;42.00;;;;;;469978;253;1019;-46
2021/11/14 05:32:27;;;;;;;;;;;20.50;42.10;;;;;;469859;254;1215;-45
2021/11/14 05:34:28;;;;;;;;;;;20.50;42.10;;;;;;470099;253;1044;-45
2021/11/14 05:36:29;;;;;;;;;;;20.50;42.10;;;;;;469814;254;1343;-46
2021/11/14 05:38:31;;;;;;;;;;;20.50;42.10;;;;;;470123;253;1081;-45
2021/11/14 05:40:32;;;;;;;;;;;20.50;42.00;;;;;;469957;254;1032;-46
2021/11/14 05:42:33;;;;;;;;;;;20.50;42.00;;;;;;469909;254;1242;-46
2021/11/14 05:44:35;;;;;;;;;;;20.50;42.00;;;;;;469963;253;1223;-45
2021/11/14 05:46:36;;;;;;;;;;;20.50;42.10;;;;;;469917;253;2253;-45
2021/11/14 05:48:37;;;;;;;;;;;20.50;42.10;;;;;;470226;253;1224;-45
2021/11/14 05:50:39;;;;;;;;;;;20.50;42.20;;;;;;470010;253;1185;-45
2021/11/14 05:52:40;;;;;;;;;;;20.50;42.10;;;;;;470309;253;1055;-45
2021/11/14 05:54:41;;;;;;;;;;;20.50;42.10;;;;;;470031;253;1047;-46
2021/11/14 05:56:43;;;;;;;;;;;20.50;42.10;;;;;;469904;254;1339;-45
2021/11/14 05:58:48;;;;;;;;;;;20.50;42.00;;;;;;470120;253;1290;-45
2021/11/14 06:00:52;;;;;;;;;;;20.50;42.00;;;;;;470070;253;2256;-45
2021/11/14 06:02:52;;;;;;;;;;;20.50;42.00;;;;;;469857;254;2356;-46
2021/11/14 06:04:57;;;;;;;;;;;20.60;42.00;;;;;;469957;253;2319;-45
2021/11/14 06:06:53;;;;;;;;;;;20.50;42.00;;;;;;469957;253;2205;-45
2021/11/14 06:08:54;;;;;;;;;;;20.50;42.10;;;;;;469946;253;1080;-45
2021/11/14 06:10:55;;;;;;;;;;;20.50;42.10;;;;;;469994;253;1107;-46
2021/11/14 06:12:57;;;;;;;;;;;20.50;42.10;;;;;;469935;254;1080;-45
2021/11/14 06:14:58;;;;;;;;;;;20.50;42.10;;;;;;469950;254;1314;-45
2021/11/14 06:17:00;;;;;;;;;;;20.50;42.10;;;;;;470108;253;1287;-45
2021/11/14 06:19:01;;;;;;;;;;;20.50;42.10;;;;;;469842;254;1559;-45
2021/11/14 06:21:02;;;;;;;;;;;20.40;42.10;;;;;;469889;253;1289;-45
2021/11/14 06:23:03;;;;;;;;;;;20.50;42.20;;;;;;469951;254;1158;-46
2021/11/14 06:25:04;;;;;;;;;;;20.50;42.10;;;;;;470111;253;1047;-45
2021/11/14 06:27:06;;;;;;;;;;;20.50;42.10;;;;;;469864;253;2187;-45
2021/11/14 06:29:07;;;;;;;;;;;20.50;42.00;;;;;;469931;254;1038;-45
2021/11/14 06:31:08;;;;;;;;;;;20.50;42.10;;;;;;469892;253;1289;-46
2021/11/14 06:33:10;;;;;;;;;;;20.50;42.20;;;;;;469992;253;1305;-46
2021/11/14 06:35:11;;;;;;;;;;;20.40;42.20;;;;;;469957;254;1087;-45
2021/11/14 06:37:12;;;;;;;;;;;20.50;42.10;;;;;;469782;253;1166;-45
2021/11/14 06:39:14;;;;;;;;;;;20.50;42.10;;;;;;470291;253;1090;-46
2021/11/14 06:41:15;;;;;;;;;;;20.50;42.10;;;;;;470073;253;1359;-45
2021/11/14 06:43:16;;;;;;;;;;;20.50;42.10;;;;;;469916;254;1138;-46
2021/11/14 06:45:18;;;;;;;;;;;20.50;42.10;;;;;;470117;253;1213;-46
2021/11/14 06:47:19;;;;;;;;;;;20.50;42.10;;;;;;469773;254;2219;-45
2021/11/14 06:49:20;;;;;;;;;;;20.50;42.10;;;;;;469879;253;1099;-45
2021/11/14 06:51:22;;;;;;;;;;;20.40;42.10;;;;;;469799;249;1276;-46
2021/11/14 06:53:23;;;;;;;;;;;20.50;42.20;;;;;;469862;254;1052;-45
2021/11/14 06:55:24;;;;;;;;;;;20.50;42.20;;;;;;470261;253;1309;-46
2021/11/14 06:57:26;;;;;;;;;;;20.40;42.10;;;;;;469786;254;1220;-45
2021/11/14 06:59:27;;;;;;;;;;;20.50;42.20;;;;;;469951;253;1120;-45
2021/11/14 07:01:28;;;;;;;;;;;20.40;42.20;;;;;;469823;253;1192;-45
2021/11/14 07:03:30;;;;;;;;;;;20.40;42.20;;;;;;469902;254;1077;-45
2021/11/14 07:05:31;;;;;;;;;;;20.50;42.20;;;;;;469881;254;1330;-45
2021/11/14 07:07:32;;;;;;;;;;;20.50;42.20;;;;;;470111;253;2194;-46
2021/11/14 07:09:33;;;;;;;;;;;20.50;42.20;;;;;;469895;254;1339;-45
2021/11/14 07:11:35;;;;;;;;;;;20.50;42.20;;;;;;470129;253;1370;-46
2021/11/14 07:13:36;;;;;;;;;;;20.50;42.20;;;;;;469946;254;1217;-46
2021/11/14 07:15:37;;;;;;;;;;;20.50;42.20;;;;;;469900;253;1193;-45
2021/11/14 07:17:39;;;;;;;;;;;20.50;42.10;;;;;;470119;253;1321;-46
2021/11/14 07:19:40;;;;;;;;;;;20.40;42.20;;;;;;469932;254;1271;-45
2021/11/14 07:21:41;;;;;;;;;;;20.40;42.20;;;;;;470036;253;1298;-46
2021/11/14 07:23:43;;;;;;;;;;;20.50;42.10;;;;;;470216;253;982;-46
2021/11/14 07:25:44;;;;;;;;;;;20.50;42.10;;;;;;470043;253;1127;-46
2021/11/14 07:27:46;;;;;;;;;;;20.50;42.20;;;;;;469932;253;2194;-46
2021/11/14 07:29:47;;;;;;;;;;;20.50;42.20;;;;;;470097;253;1084;-45
2021/11/14 07:31:48;;;;;;;;;;;20.40;42.10;;;;;;469846;253;1347;-45
2021/11/14 07:33:50;;;;;;;;;;;20.40;42.20;;;;;;470034;253;1030;-45
2021/11/14 07:35:51;;;;;;;;;;;20.40;42.20;;;;;;470111;253;1253;-45
2021/11/14 07:37:52;;;;;;;;;;;20.40;42.20;;;;;;469792;254;1640;-45
2021/11/14 07:39:54;;;;;;;;;;;20.50;42.20;;;;;;469912;254;1101;-45
2021/11/14 07:41:55;;;;;;;;;;;20.60;42.20;;;;;;469932;253;1280;-45
2021/11/14 07:43:56;;;;;;;;;;;20.50;42.20;;;;;;469995;253;1059;-45
2021/11/14 07:45:58;;;;;;;;;;;20.40;42.10;;;;;;470047;253;1181;-45
2021/11/14 07:47:59;;;;;;;;;;;20.40;42.20;;;;;;469896;253;2195;-46
2021/11/14 07:50:00;;;;;;;;;;;20.50;42.20;;;;;;470014;253;1044;-45
2021/11/14 07:52:02;;;;;;;;;;;20.50;42.20;;;;;;469849;249;1336;-45
2021/11/14 07:54:03;;;;;;;;;;;20.50;42.20;;;;;;469985;253;1248;-45
2021/11/14 07:56:04;;;;;;;;;;;20.50;42.10;;;;;;469857;253;1224;-45
2021/11/14 07:58:06;;;;;;;;;;;20.50;42.10;;;;;;469924;253;1198;-45
2021/11/14 08:00:07;;;;;;;;;;;20.50;42.20;;;;;;469916;254;1061;-46
2021/11/14 08:02:09;;;;;;;;;;;20.50;42.20;;;;;;469863;253;1319;-45
2021/11/14 08:04:10;;;;;;;;;;;20.50;42.20;;;;;;469902;254;1084;-45
2021/11/14 08:06:11;;;;;;;;;;;20.50;42.10;;;;;;469950;253;1129;-45
2021/11/14 08:08:13;;;;;;;;;;;20.50;42.10;;;;;;470077;253;2190;-46
2021/11/14 08:10:14;;;;;;;;;;;20.50;42.10;;;;;;469912;254;1003;-45
2021/11/14 08:12:15;;;;;;;;;;;20.40;42.10;;;;;;470227;249;1359;-45
2021/11/14 08:14:17;;;;;;;;;;;20.50;42.20;;;;;;470065;253;1102;-45
2021/11/14 08:16:18;;;;;;;;;;;20.50;42.20;;;;;;470120;253;1321;-45
2021/11/14 08:18:19;;;;;;;;;;;20.50;42.20;;;;;;469892;254;1059;-45
2021/11/14 08:20:20;;;;;;;;;;;20.50;42.20;;;;;;470336;253;1006;-46
2021/11/14 08:22:22;;;;;;;;;;;20.50;42.20;;;;;;469931;253;1230;-45
2021/11/14 08:24:23;;;;;;;;;;;20.50;42.10;;;;;;470284;253;1051;-45
2021/11/14 08:26:24;;;;;;;;;;;20.50;42.20;;;;;;470016;253;2199;-45
2021/11/14 08:28:26;;;;;;;;;;;20.50;42.10;;;;;;469985;253;1136;-46
2021/11/14 08:30:27;;;;;;;;;;;20.50;42.10;;;;;;469887;254;1254;-45
2021/11/14 08:32:28;;;;;;;;;;;20.50;42.20;;;;;;469803;254;1241;-46
2021/11/14 08:34:30;;;;;;;;;;;20.50;42.20;;;;;;469911;254;1000;-45
2021/11/14 08:36:31;;;;;;;;;;;20.50;42.20;;;;;;470052;253;1571;-45
2021/11/14 08:38:32;;;;;;;;;;;20.50;42.20;;;;;;470261;253;1018;-45
2021/11/14 08:40:34;;;;;;;;;;;20.50;42.20;;;;;;469888;254;1730;-45
2021/11/14 08:42:35;;;;;;;;;;;20.50;42.20;;;;;;470035;253;1232;-45
2021/11/14 08:44:36;;;;;;;;;;;20.40;42.20;;;;;;469846;254;1163;-45
2021/11/14 08:46:38;;;;;;;;;;;20.50;42.30;;;;;;469733;253;2164;-46
2021/11/14 08:48:39;;;;;;;;;;;20.40;42.30;;;;;;470177;253;1036;-45
2021/11/14 08:50:40;;;;;;;;;;;20.40;42.30;;;;;;469839;254;1362;-45
2021/11/14 08:52:45;;;;;;;;;;;20.50;42.30;;;;;;469901;253;1579;-45
2021/11/14 08:54:43;;;;;;;;;;;20.50;42.20;;;;;;470164;253;2197;-45
2021/11/14 08:56:44;;;;;;;;;;;20.50;42.20;;;;;;469753;254;1323;-45
2021/11/14 08:58:46;;;;;;;;;;;20.50;42.20;;;;;;469890;254;1105;-45
2021/11/14 09:00:47;;;;;;;;;;;20.50;42.20;;;;;;469972;253;1215;-46
2021/11/14 09:02:49;;;;;;;;;;;20.50;42.30;;;;;;469812;254;1260;-45
2021/11/14 09:04:50;;;;;;;;;;;20.40;42.20;;;;;;470086;253;1118;-45
2021/11/14 09:06:53;;;;;;;;;;;20.50;42.20;;;;;;469995;253;2194;-45
2021/11/14 09:08:54;;;;;;;;;;;20.50;42.20;;;;;;470206;253;1613;-46
2021/11/14 09:10:54;;;;;;;;;;;20.50;42.20;;;;;;470007;253;1417;-45
2021/11/14 09:12:56;;;;;;;;;;;20.50;42.20;;;;;;469853;254;1290;-45
2021/11/14 09:14:57;;;;;;;;;;;20.40;42.20;;;;;;470191;253;1052;-45
2021/11/14 09:16:58;;;;;;;;;;;20.40;42.30;;;;;;469784;254;1311;-45
2021/11/14 09:19:00;;;;;;;;;;;20.50;42.30;;;;;;470061;253;1109;-45
2021/11/14 09:21:01;;;;;;;;;;;20.50;42.20;;;;;;469855;254;1379;-45
2021/11/14 09:23:02;;;;;;;;;;;20.50;42.20;;;;;;470164;253;1065;-45
2021/11/14 09:25:04;;;;;;;;;;;20.50;42.20;;;;;;469858;254;1084;-45
2021/11/14 09:27:06;;;;;;;;;;;20.50;42.20;;;;;;469857;253;2147;-46
2021/11/14 09:29:06;;;;;;;;;;;20.50;42.20;;;;;;469858;254;2351;-46
2021/11/14 09:31:09;;;;;;;;;;;20.50;42.20;;;;;;470252;253;1339;-45
2021/11/14 09:33:09;;;;;;;;;;;20.50;42.20;;;;;;469977;253;1949;-45
2021/11/14 09:35:11;;;;;;;;;;;20.50;42.20;;;;;;469969;253;1080;-45
2021/11/14 09:37:12;;;;;;;;;;;20.40;42.30;;;;;;469842;254;1473;-46
2021/11/14 09:39:13;;;;;;;;;;;20.40;42.30;;;;;;469895;254;1260;-46
2021/11/14 09:41:14;;;;;;;;;;;20.50;42.30;;;;;;470054;253;1257;-45
2021/11/14 09:43:18;;;;;;;;;;;20.50;42.30;;;;;;469853;254;1097;-46
2021/11/14 09:45:17;;;;;;;;;;;20.50;42.30;;;;;;469834;254;2064;-45
2021/11/14 09:47:18;;;;;;;;;;;20.50;42.30;;;;;;469980;253;2214;-45
2021/11/14 09:49:20;;;;;;;;;;;20.50;42.30;;;;;;470001;253;1080;-45
2021/11/14 09:51:21;;;;;;;;;;;20.50;42.30;;;;;;469904;253;1203;-45
2021/11/14 09:53:22;;;;;;;;;;;20.40;42.30;;;;;;469896;254;1079;-45
2021/11/14 09:55:23;;;;;;;;;;;20.50;42.30;;;;;;469952;253;1076;-45
2021/11/14 09:57:25;;;;;;;;;;;20.50;42.30;;;;;;470095;253;1217;-45
2021/11/14 09:59:26;;;;;;;;;;;20.50;42.30;;;;;;469986;253;1173;-45
2021/11/14 10:01:27;;;;;;;;;;;20.50;42.30;;;;;;470071;253;1175;-45
2021/11/14 10:03:29;;;;;;;;;;;20.50;42.20;;;;;;470053;253;1189;-46
2021/11/14 10:05:30;;;;;;;;;;;20.50;42.30;;;;;;469957;254;1074;-46
2021/11/14 10:07:32;;;;;;;;;;;20.40;42.30;;;;;;469833;254;2204;-46
2021/11/14 10:09:33;;;;;;;;;;;20.50;42.30;;;;;;469916;254;1102;-45
2021/11/14 10:11:35;;;;;;;;;;;20.50;42.30;;;;;;469816;249;1436;-46
2021/11/14 10:13:36;;;;;;;;;;;20.50;42.20;;;;;;469892;254;1248;-45
2021/11/14 10:15:37;;;;;;;;;;;20.50;42.30;;;;;;470190;253;1107;-45
2021/11/14 10:17:39;;;;;;;;;;;20.50;42.30;;;;;;469768;254;1291;-46
2021/11/14 10:19:40;;;;;;;;;;;20.50;42.30;;;;;;470129;253;1044;-45
2021/11/14 10:21:45;;;;;;;;;;;20.50;42.20;;;;;;469785;254;1315;-45
2021/11/14 10:23:42;;;;;;;;;;;20.50;42.30;;;;;;469917;253;1916;-45
2021/11/14 10:25:44;;;;;;;;;;;20.50;42.30;;;;;;469913;254;1375;-45
2021/11/14 10:27:45;;;;;;;;;;;20.50;42.30;;;;;;469843;254;2219;-46
2021/11/14 10:29:46;;;;;;;;;;;20.50;42.20;;;;;;469952;253;1157;-46
2021/11/14 10:31:48;;;;;;;;;;;20.50;42.30;;;;;;469852;254;1356;-46
2021/11/14 10:33:49;;;;;;;;;;;20.50;42.30;;;;;;469980;253;1373;-46
2021/11/14 10:35:50;;;;;;;;;;;20.50;42.20;;;;;;470028;253;1455;-46
2021/11/14 10:37:52;;;;;;;;;;;20.50;42.30;;;;;;469889;254;1199;-45
2021/11/14 10:39:53;;;;;;;;;;;20.50;42.30;;;;;;470322;253;1072;-46
2021/11/14 10:41:58;;;;;;;;;;;20.50;42.30;;;;;;469870;253;1210;-45
2021/11/14 10:43:56;;;;;;;;;;;20.50;42.20;;;;;;470028;253;2442;-46
2021/11/14 10:45:58;;;;;;;;;;;20.50;42.20;;;;;;469803;253;1440;-45
2021/11/14 10:47:58;;;;;;;;;;;20.50;42.30;;;;;;469825;253;2199;-45
2021/11/14 10:50:00;;;;;;;;;;;20.50;42.20;;;;;;469891;254;1075;-45
2021/11/14 10:52:01;;;;;;;;;;;20.50;42.20;;;;;;469916;253;1480;-46
2021/11/14 10:54:02;;;;;;;;;;;20.50;42.30;;;;;;469927;254;1215;-45
2021/11/14 10:56:03;;;;;;;;;;;20.50;42.30;;;;;;469986;253;1278;-45
2021/11/14 10:58:05;;;;;;;;;;;20.50;42.30;;;;;;469924;254;1189;-45
2021/11/14 11:00:06;;;;;;;;;;;20.50;42.30;;;;;;470117;253;1163;-46
2021/11/14 11:02:07;;;;;;;;;;;20.50;42.30;;;;;;469808;254;1595;-46
2021/11/14 11:04:09;;;;;;;;;;;20.50;42.30;;;;;;469954;253;1143;-46
2021/11/14 11:06:10;;;;;;;;;;;20.50;42.40;;;;;;469725;249;1195;-45
2021/11/14 11:08:11;;;;;;;;;;;20.50;42.40;;;;;;469850;254;2192;-45
2021/11/14 11:10:13;;;;;;;;;;;20.50;42.30;;;;;;470296;253;1108;-45
2021/11/14 11:12:14;;;;;;;;;;;20.50;42.30;;;;;;469681;254;1502;-46
2021/11/14 11:14:15;;;;;;;;;;;20.50;42.30;;;;;;470001;253;1068;-45
2021/11/14 11:16:17;;;;;;;;;;;20.50;42.30;;;;;;469736;249;1675;-45
2021/11/14 11:18:18;;;;;;;;;;;20.50;42.40;;;;;;469939;253;1686;-45
2021/11/14 11:20:19;;;;;;;;;;;20.40;42.40;;;;;;470312;253;1062;-45
2021/11/14 11:22:21;;;;;;;;;;;20.50;42.30;;;;;;469700;253;1639;-46
2021/11/14 11:24:22;;;;;;;;;;;20.50;42.30;;;;;;470088;253;1063;-45
2021/11/14 11:26:23;;;;;;;;;;;20.50;42.40;;;;;;469987;253;1188;-46
2021/11/14 11:28:25;;;;;;;;;;;20.50;42.30;;;;;;469896;254;2210;-45
2021/11/14 11:30:26;;;;;;;;;;;20.50;42.30;;;;;;469949;253;1165;-46
2021/11/14 11:32:27;;;;;;;;;;;20.50;42.40;;;;;;469796;254;1281;-45
2021/11/14 11:34:28;;;;;;;;;;;20.50;42.40;;;;;;469879;254;1235;-45
2021/11/14 11:36:30;;;;;;;;;;;20.50;42.40;;;;;;469793;253;1265;-46
2021/11/14 11:38:32;;;;;;;;;;;20.50;42.40;;;;;;469994;253;1241;-45
2021/11/14 11:40:33;;;;;;;;;;;20.50;42.40;;;;;;470011;253;2391;-46
2021/11/14 11:42:34;;;;;;;;;;;20.50;42.30;;;;;;469889;253;1713;-45
2021/11/14 11:44:35;;;;;;;;;;;20.50;42.40;;;;;;469904;254;1079;-45
2021/11/14 11:46:36;;;;;;;;;;;20.50;42.30;;;;;;469791;254;1235;-45
2021/11/14 11:48:38;;;;;;;;;;;20.50;42.30;;;;;;469866;254;2187;-46
2021/11/14 11:50:39;;;;;;;;;;;20.50;42.30;;;;;;470036;253;1059;-45
2021/11/14 11:52:40;;;;;;;;;;;20.50;42.30;;;;;;469876;254;1090;-46
2021/11/14 11:54:43;;;;;;;;;;;20.40;42.30;;;;;;470253;253;1101;-46
2021/11/14 11:56:44;;;;;;;;;;;20.40;42.40;;;;;;469914;253;1070;-45